Flood watches and warnings may be in place at some locations. For the latest rainfall, river conditions, flood watches and warnings see BoM.

Scroll for more >

River gauges, storages, and weirs in the Murray–Darling Basin

Type Locationsort descending River Water level Flow Volume Release Water temp Salinity Rainfall
River Gauge Albury (Union Bridge) Murray 3.52 m 26/09/2016 19:45 Not measured Not measured Not measured 12.2°C 26/09/2016 19:45 53.8 μS/cm 26/09/2016 19:45 Not measured Full data
River Gauge Balranald Murrumbidgee 5.65 m 26/09/2016 20:45 9306 ML/Day 26/09/2016 20:45 Not measured Not measured 15.5°C 26/09/2016 20:45 204.1 μS/cm 26/09/2016 20:45 Not measured Full data
River Gauge Bandiana Kiewa 2.86 m 26/09/2016 20:45 4738 ML/Day 26/09/2016 20:45 Not measured Not measured 12.9°C 26/09/2016 20:45 40.7 μS/cm 26/09/2016 20:45 Not measured Full data
River Gauge Biggara Murray 1.23 m 26/09/2016 20:30 3026 ML/Day 26/09/2016 20:30 Not measured Not measured 9.8°C 26/09/2016 20:30 43.3 μS/cm 26/09/2016 20:30 2.0 mm 26/09/2016 9:00 Full data
River Gauge Bringenbrong Bridge Murray 2.63 m 26/09/2016 20:30 13114 ML/Day 26/09/2016 20:30 Not measured Not measured Not measured Not measured Not measured Full data
River Gauge Burtundy Darling 1.01 m 26/09/2016 20:15 993 ML/Day 26/09/2016 20:15 Not measured Not measured 16.4°C 26/09/2016 20:15 514.2 μS/cm 26/09/2016 20:15 Not measured Full data
River Gauge Colemans Mitta 0.89 m 26/09/2016 20:45 215 ML/Day 26/09/2016 20:45 Not measured Not measured 12.1°C 26/09/2016 20:45 56.8 μS/cm 26/09/2016 20:45 Not measured Full data
River Gauge Colignan Murray 5.28 m 26/09/2016 20:30 37147 ML/Day 26/09/2016 20:30 Not measured Not measured 15.6°C 26/09/2016 20:30 136.7 μS/cm 26/09/2016 20:30 Not measured Full data
River Gauge Corowa Murray 5.71 m 26/09/2016 19:45 41559 ML/Day 26/09/2016 19:45 Not measured Not measured 14.0°C 26/09/2016 19:45 48.6 μS/cm 26/09/2016 19:45 Not measured Full data
Storage Dartmouth Dam Mitta 462.13 m 26/09/2016 20:45 Not measured 2479 GL 26/09/2016 20:45 Not measured Not measured Not measured Not measured Full data
River Gauge Doctors Point Murray 4.39 m 26/09/2016 19:45 32925 ML/Day 26/09/2016 19:45 Not measured Not measured 12.0°C 26/09/2016 19:45 56.7 μS/cm 26/09/2016 19:45 Not measured Full data
River Gauge Echuca Wharf Murray 91.78 m 26/09/2016 20:15 Not measured Not measured Not measured Not measured Not measured Not measured Full data
River Gauge Edward Escape Wakool 0.06 m 26/09/2016 19:45 10 ML/Day 26/09/2016 19:45 Not measured Not measured 15.8°C 26/09/2016 19:45 61.3 μS/cm 26/09/2016 19:45 Not measured Full data
River Gauge Edward River Offtake Murray 3.04 m 26/09/2016 20:45 2745 ML/Day 26/09/2016 20:45 Not measured Not measured 15.0°C 26/09/2016 19:45 43.7 μS/cm 26/09/2016 19:45 Not measured Full data
Weirs Euston Weir Downstream Murray 46.91 m 26/09/2016 20:45 39200 ML/Day 26/09/2016 20:45 Not measured Not measured 15.1°C 26/09/2016 20:45 195.8 μS/cm 26/09/2016 20:45 Not measured Full data
Weirs Euston Weir Upstream Murray 47.38 m 26/09/2016 7:45 Not measured 34 GL 26/09/2016 7:45 Not measured Not measured Not measured 1.0 mm 25/09/2016 9:00 Full data
River Gauge Flow to South Australia Murray Not measured Not measured Not measured 33491.0 ML/d26/09/2016 7:45 Not measured Not measured Not measured Full data
River Gauge Frenchman Creek Murray 27.63 m 26/09/2016 7:45 Not measured Not measured 2921.0 ML/d26/09/2016 7:45 Not measured Not measured Not measured Full data
River Gauge Gulpa Creek Offtake Murray 3.39 m 26/09/2016 20:45 1181 ML/Day 26/09/2016 20:45 Not measured Not measured Not measured Not measured Not measured Full data
River Gauge Hinnomunjie Mitta 1.26 m 26/09/2016 20:15 2409 ML/Day 26/09/2016 20:15 Not measured Not measured 9.0°C 26/09/2016 20:15 32.7 μS/cm 26/09/2016 20:15 0.0 mm 26/09/2016 9:00 Full data
Storage Hume Dam Murray 191.58 m 26/09/2016 20:30 Not measured 2921 GL 26/09/2016 20:30 26000 ML/d26/09/2016 9:00 Not measured Not measured 0.4 mm 26/09/2016 9:00 Full data
River Gauge Jingellic Murray 3.18 m 26/09/2016 20:45 19231 ML/Day 26/09/2016 20:45 Not measured Not measured 11.9°C 26/09/2016 20:45 29.3 μS/cm 26/09/2016 20:45 0.2 mm 26/09/2016 9:00 Full data
River Gauge Kerang Loddon 1.05 m 26/09/2016 20:45 1323 ML/Day 26/09/2016 20:45 Not measured Not measured 25.3°C 26/09/2016 20:45 502.2 μS/cm 26/09/2016 20:45 Not measured Full data
River Gauge Lake Albert Murray 0.88 m 26/09/2016 5:45 Not measured 288 GL 9/09/2016 5:45 Not measured Not measured Not measured Not measured Full data
River Gauge Lake Alexandrina Murray 0.85 m 26/09/2016 5:45 Not measured 1677 GL 26/09/2016 5:45 Not measured Not measured Not measured Not measured Full data
Storage Lake Victoria Murray 25.77 m 26/09/2016 19:45 Not measured 532 GL 26/09/2016 19:45 Not measured 14.2°C 26/09/2016 19:45 141.4 μS/cm 26/09/2016 19:45 Not measured Full data
Weirs Lock 1 Downstream Murray 2.28 m 26/09/2016 19:45 Not measured Not measured 33850.5 ML/d26/09/2016 7:45 Not measured Not measured Not measured Full data
Weirs Lock 1 Upstream Murray 3.07 m 26/09/2016 19:45 Not measured Not measured Not measured 15.5°C 26/09/2016 19:45 185.5 μS/cm 26/09/2016 19:45 Not measured Full data
Weirs Lock 2 Downstream Murray 5.5 m 26/09/2016 19:45 Not measured Not measured Not measured Not measured Not measured Not measured Full data
Weirs Lock 2 Upstream Murray 6.76 m 26/09/2016 19:45 Not measured Not measured Not measured 15.4°C 26/09/2016 19:45 192.0 μS/cm 26/09/2016 19:45 Not measured Full data
Weirs Lock 3 Downstream Murray 8.41 m 26/09/2016 19:45 Not measured Not measured Not measured Not measured Not measured Not measured Full data
Weirs Lock 3 Upstream Murray 9.82 m 26/09/2016 19:45 Not measured Not measured Not measured Not measured Not measured Not measured Full data
Weirs Lock 4 Downstream Murray 12.62 m 26/09/2016 19:45 Not measured Not measured Not measured Not measured Not measured Not measured Full data
Weirs Lock 4 Upstream Murray 13.22 m 26/09/2016 19:45 Not measured Not measured Not measured Not measured Not measured Not measured Full data
Weirs Lock 5 Downstream Murray 14.95 m 26/09/2016 19:45 Not measured Not measured Not measured Not measured Not measured Not measured Full data
Weirs Lock 5 Upstream Murray 16.74 m 26/09/2016 19:45 Not measured Not measured Not measured 15.4°C 26/09/2016 19:45 175.9 μS/cm 26/09/2016 19:45 Not measured Full data
Weirs Lock 6 Downstream Murray 18.28 m 26/09/2016 19:45 Not measured Not measured Not measured Not measured Not measured Not measured Full data
Weirs Lock 6 Upstream Murray 19.79 m 26/09/2016 19:45 Not measured Not measured Not measured 15.3°C 26/09/2016 19:45 191.3 μS/cm 26/09/2016 19:45 Not measured Full data
Weirs Lock 7 Downstream Murray 23.15 m 26/09/2016 7:45 Not measured Not measured Not measured Not measured Not measured Not measured Full data
Weirs Lock 7 Upstream Murray 23.19 m 26/09/2016 7:45 Not measured Not measured Not measured 14.9°C 24/09/2016 8:45 183.0 μS/cm 26/09/2016 7:45 Not measured Full data
Weirs Lock 8 Upstream Murray 24.96 m 26/09/2016 19:45 Not measured Not measured Not measured 15.5°C 26/09/2016 19:45 172.6 μS/cm 26/09/2016 19:45 Not measured Full data
Weirs Lock 9 Downstream Murray 26.19 m 26/09/2016 19:45 Not measured Not measured Not measured Not measured Not measured Not measured Full data
Weirs Lock 9 Upstream Murray 27.36 m 26/09/2016 7:45 Not measured Not measured Not measured 15.5°C 26/09/2016 19:45 165.8 μS/cm 26/09/2016 19:45 Not measured Full data
River Gauge McCoy Bridge Goulburn 7.21 m 26/09/2016 20:45 15131 ML/Day 26/09/2016 20:45 Not measured Not measured 14.3°C 26/09/2016 20:45 125.4 μS/cm 26/09/2016 20:45 Not measured Full data
Storage Menindee Lakes Darling Not measured Not measured 323 GL 26/09/2016 8:45 Not measured Not measured Not measured Not measured Full data
Weirs Mildura Weir downstream Murray 32.76 m 26/09/2016 20:30 Not measured Not measured Not measured 15.7°C 26/09/2016 20:30 135.5 μS/cm 26/09/2016 20:30 Not measured Full data
River Gauge Morgan Downstream Murray Not measured Not measured Not measured 29815.3 ML/d26/09/2016 19:45 Not measured Not measured Not measured Full data
River Gauge Mulwala Canal Murray Not measured Not measured Not measured 20.0 ML/d26/09/2016 7:45 Not measured Not measured Not measured Full data
River Gauge Mundoo Barrage Murray 0.77 m 26/09/2016 7:45 Not measured Not measured Not measured Not measured Not measured Not measured Full data
River Gauge Murray Bridge Murray 0.95 m 26/09/2016 19:45 Not measured Not measured Not measured 15.0°C 26/09/2016 19:45 193.8 μS/cm 26/09/2016 19:45 Not measured Full data
River Gauge Peechelba Ovens 130.16 m 26/09/2016 20:30 15825 ML/Day 26/09/2016 20:30 Not measured Not measured 14.2°C 26/09/2016 20:30 139.8 μS/cm 26/09/2016 20:30 Not measured Full data
River Gauge Pinegrove Murray 2.32 m 26/09/2016 20:30 2742 ML/Day 26/09/2016 20:30 Not measured Not measured 11.8°C 26/09/2016 20:30 121.2 μS/cm 26/09/2016 20:30 1.6 mm 26/09/2016 9:00 Full data
River Gauge Rochester Campaspe 1.98 m 26/09/2016 20:45 274 ML/Day 26/09/2016 20:45 Not measured Not measured 15.0°C 26/09/2016 20:45 480.0 μS/cm 26/09/2016 20:45 0.0 mm 26/09/2016 9:00 Full data
River Gauge Rufus River Murray 23.25 m 26/09/2016 7:45 Not measured Not measured 1670.0 ML/d26/09/2016 7:45 Not measured 157.5 μS/cm 26/09/2016 14:45 Not measured Full data
Weirs Steven's Weir Downstream Wakool 6.21 m 26/09/2016 19:45 15083 ML/Day 21/09/2016 20:30 Not measured Not measured 15.4°C 26/09/2016 19:45 49.4 μS/cm 26/09/2016 19:45 0.2 mm 24/09/2016 9:00 Full data
Weirs Steven's Weir Upstream Wakool 6.27 m 26/09/2016 20:45 Not measured Not measured Not measured Not measured Not measured Not measured Full data
River Gauge Stoney Crossing Murray 4.07 m 26/09/2016 19:45 Not measured Not measured 6950.5 ML/d26/09/2016 7:45 15.9°C 26/09/2016 19:45 89.2 μS/cm 26/09/2016 19:45 Not measured Full data
River Gauge Swan Hill Murray 3.77 m 26/09/2016 20:15 23251 ML/Day 26/09/2016 20:15 Not measured Not measured 15.4°C 26/09/2016 20:15 188.3 μS/cm 26/09/2016 20:15 Not measured Full data
River Gauge Tallandoon Mitta 2.15 m 26/09/2016 20:30 2955 ML/Day 26/09/2016 20:30 Not measured Not measured 12.5°C 26/09/2016 20:30 80.4 μS/cm 26/09/2016 20:30 Not measured Full data
River Gauge Tauwitchere Barrage Murray 0.72 m 26/09/2016 19:45 Not measured Not measured Not measured Not measured Not measured Not measured Full data
River Gauge Tocumwal Murray 6.49 m 26/09/2016 20:15 82904 ML/Day 26/09/2016 20:15 Not measured Not measured 15.0°C 26/09/2016 20:15 56.8 μS/cm 26/09/2016 20:15 Not measured Full data
River Gauge Torrumbarry Headworks Murray 84.46 m 26/09/2016 20:45 Not measured Not measured 671.0 ML/d26/09/2016 20:45 Not measured Not measured Not measured Full data
Weirs Torrumbarry Weir Downstream Murray 7.44 m 26/09/2016 20:45 45523 ML/Day 26/09/2016 20:45 Not measured Not measured 14.4°C 26/09/2016 20:45 92.8 μS/cm 26/09/2016 20:45 Not measured Full data
Weirs Torrumbarry Weir Upstream Murray 86 m 26/09/2016 8:45 Not measured 36 GL 26/09/2016 8:45 Not measured 14.0°C 26/09/2016 8:45 92.0 μS/cm 26/09/2016 8:45 0.0 mm 26/09/2016 9:00 Full data
River Gauge Wakool Canal Wakool 0.57 m 26/09/2016 19:45 Not measured Not measured 25.0 ML/d26/09/2016 8:45 Not measured Not measured Not measured Full data
River Gauge Wakool Junction Murray 7.3 m 26/09/2016 20:30 34201 ML/Day 26/09/2016 20:30 Not measured Not measured 14.9°C 26/09/2016 20:30 119.6 μS/cm 26/09/2016 20:30 Not measured Full data
River Gauge Weir 32 Upstream Darling 1.67 m 26/09/2016 19:45 742 ML/Day 26/09/2016 19:45 Not measured Not measured 16.3°C 26/09/2016 19:45 401.9 μS/cm 26/09/2016 19:45 Not measured Full data
Weirs Wentworth Weir Murray 29.66 m 26/09/2016 19:45 Not measured Not measured 34572.3 ML/d26/09/2016 7:45 Not measured 304.9 μS/cm 26/09/2016 7:45 2.9 mm 25/09/2016 9:00 Full data
River Gauge Wilcania Darling 4.67 m 26/09/2016 19:45 10045 ML/Day 26/09/2016 19:45 Not measured Not measured 17.4°C 26/09/2016 19:45 263.7 μS/cm 26/09/2016 19:45 Not measured Full data
River Gauge Yarrawonga Main Channel Murray 123.03 m 26/09/2016 20:45 Not measured Not measured -8.5 ML/d26/09/2016 20:45 Not measured Not measured Not measured Full data
Weirs Yarrawonga Weir Downstream Murray 5.96 m 26/09/2016 20:30 67104 ML/Day 26/09/2016 20:30 Not measured Not measured 14.9°C 26/09/2016 19:45 51.0 μS/cm 26/09/2016 19:45 Not measured Full data
Weirs Yarrawonga Weir Upstream Murray 124.71 m 26/09/2016 20:30 Not measured Not measured Not measured Not measured Not measured 0.0 mm 26/09/2016 9:00 Full data